createdAt,value
2022-11-05T00:00:05.788Z,10.63
2022-11-05T00:03:26.589Z,10.54
2022-11-05T00:06:46.525Z,10.66
2022-11-05T00:09:49.333Z,10.61
2022-11-05T00:13:25.341Z,10.48
2022-11-05T00:16:44.682Z,10.49
2022-11-05T00:19:46.074Z,10.62
2022-11-05T00:23:06.337Z,10.66
2022-11-05T00:26:09.722Z,10.57
2022-11-05T00:29:11.122Z,10.55
2022-11-05T00:32:13.099Z,10.62
2022-11-05T00:35:15.662Z,10.63
2022-11-05T00:38:17.062Z,10.54
2022-11-05T00:41:18.481Z,10.54
2022-11-05T00:44:38.448Z,10.54
2022-11-05T00:47:58.830Z,10.52
2022-11-05T00:51:00.296Z,10.51
2022-11-05T00:54:01.785Z,10.43
2022-11-05T00:57:04.736Z,10.50
2022-11-05T01:00:06.833Z,10.39
2022-11-05T01:03:14.507Z,10.45
2022-11-05T01:06:17.401Z,10.49
2022-11-05T01:09:18.840Z,10.49
2022-11-05T01:12:20.234Z,10.55
2022-11-05T01:15:21.797Z,10.58
2022-11-05T01:18:24.415Z,10.49
2022-11-05T01:21:26.084Z,10.51
2022-11-05T01:24:27.629Z,10.51
2022-11-05T01:27:29.279Z,10.49
2022-11-05T01:30:31.446Z,10.57
2022-11-05T01:33:32.827Z,10.41
2022-11-05T01:36:34.254Z,10.26
2022-11-05T01:39:35.685Z,10.36
2022-11-05T01:42:37.059Z,10.29
2022-11-05T01:45:38.531Z,10.18
2022-11-05T01:48:40.271Z,10.28
2022-11-05T01:51:43.702Z,10.42
2022-11-05T01:54:47.147Z,10.37
2022-11-05T01:57:49.106Z,10.29
2022-11-05T02:00:50.992Z,10.40
2022-11-05T02:03:57.962Z,10.47
2022-11-05T02:06:59.933Z,10.33
2022-11-05T02:10:04.391Z,10.46
2022-11-05T02:13:05.853Z,10.37
2022-11-05T02:16:34.436Z,10.36
2022-11-05T02:19:58.762Z,10.35
2022-11-05T02:23:40.093Z,10.30
2022-11-05T02:27:03.477Z,10.38
2022-11-05T02:30:12.113Z,10.31
2022-11-05T02:33:31.095Z,10.30
2022-11-05T02:37:11.134Z,10.20
2022-11-05T02:40:33.714Z,10.37
2022-11-05T02:43:53.736Z,10.39
2022-11-05T02:47:17.966Z,10.31
2022-11-05T02:50:26.710Z,10.28
2022-11-05T02:53:38.464Z,10.16
2022-11-05T02:56:44.722Z,10.23
2022-11-05T02:59:46.161Z,10.26
2022-11-05T03:02:47.741Z,10.23
2022-11-05T03:06:14.243Z,10.28
2022-11-05T03:09:57.555Z,10.34
2022-11-05T03:13:14.344Z,10.18
2022-11-05T03:16:21.380Z,10.03
2022-11-05T03:19:41.021Z,10.04
2022-11-05T03:22:54.419Z,10.07
2022-11-05T03:26:04.580Z,10.06
2022-11-05T03:29:13.307Z,10.09
2022-11-05T03:32:17.272Z,9.77
2022-11-05T03:35:34.523Z,9.57
2022-11-05T03:38:40.129Z,9.62
2022-11-05T03:41:46.665Z,9.63
2022-11-05T03:44:52.486Z,9.74
2022-11-05T03:47:58.759Z,9.68
2022-11-05T03:51:29.471Z,9.75
2022-11-05T03:54:32.447Z,9.68
2022-11-05T03:57:39.299Z,9.67
2022-11-05T04:00:40.899Z,9.61
2022-11-05T04:03:42.374Z,9.76
2022-11-05T04:07:02.523Z,9.61
2022-11-05T04:10:22.878Z,9.93
2022-11-05T04:13:24.299Z,9.51
2022-11-05T04:16:44.518Z,9.73
2022-11-05T04:20:04.413Z,9.66
2022-11-05T04:23:25.701Z,9.91
2022-11-05T04:26:27.089Z,9.97
2022-11-05T04:29:47.233Z,9.96
2022-11-05T04:32:56.519Z,10.06
2022-11-05T04:35:57.910Z,9.84
2022-11-05T04:38:59.444Z,9.98
2022-11-05T04:42:00.937Z,10.10
2022-11-05T04:45:02.351Z,10.14
2022-11-05T04:48:04.390Z,10.05
2022-11-05T04:51:06.038Z,10.09
2022-11-05T04:54:07.622Z,10.21
2022-11-05T04:57:09.035Z,10.22
2022-11-05T05:00:11.361Z,10.18
2022-11-05T05:03:13.128Z,10.18
2022-11-05T05:06:15.646Z,10.14
2022-11-05T05:09:17.039Z,10.20
2022-11-05T05:12:18.544Z,10.17
2022-11-05T05:15:20.038Z,10.24
2022-11-05T05:18:21.475Z,10.16
2022-11-05T05:21:38.649Z,10.15
2022-11-05T05:24:40.049Z,10.04
2022-11-05T05:27:41.453Z,9.90
2022-11-05T05:30:43.000Z,10.01
2022-11-05T05:33:44.388Z,9.99
2022-11-05T05:36:45.856Z,9.98
2022-11-05T05:39:48.553Z,10.08
2022-11-05T05:42:55.528Z,9.92
2022-11-05T05:46:02.372Z,9.98
2022-11-05T05:49:09.441Z,9.81
2022-11-05T05:52:13.532Z,9.66
2022-11-05T05:55:15.281Z,9.58
2022-11-05T05:58:16.678Z,9.83
2022-11-05T06:01:19.570Z,9.66
2022-11-05T06:04:21.544Z,9.48
2022-11-05T06:07:23.050Z,9.12
2022-11-05T06:10:25.399Z,9.48
2022-11-05T06:13:26.942Z,9.51
2022-11-05T06:16:28.522Z,9.36
2022-11-05T06:19:29.910Z,9.52
2022-11-05T06:22:31.292Z,9.18
2022-11-05T06:25:35.993Z,9.40
2022-11-05T06:28:42.184Z,9.49
2022-11-05T06:31:43.651Z,9.59
2022-11-05T06:34:45.052Z,9.51
2022-11-05T06:37:46.487Z,9.58
2022-11-05T06:40:47.903Z,9.75
2022-11-05T06:43:49.278Z,9.51
2022-11-05T06:46:50.657Z,9.36
2022-11-05T06:49:52.307Z,9.69
2022-11-05T06:52:58.892Z,9.83
2022-11-05T06:56:05.519Z,9.86
2022-11-05T06:59:08.474Z,9.91
2022-11-05T07:02:12.680Z,9.87
2022-11-05T07:05:15.788Z,9.93
2022-11-05T07:08:17.285Z,9.92
2022-11-05T07:11:18.694Z,9.95
2022-11-05T07:14:20.166Z,10.07
2022-11-05T07:17:22.696Z,10.07
2022-11-05T07:20:25.631Z,9.95
2022-11-05T07:23:28.686Z,9.91
2022-11-05T07:26:34.411Z,9.87
2022-11-05T07:29:36.121Z,10.06
2022-11-05T07:32:43.898Z,10.01
2022-11-05T07:35:45.338Z,10.18
2022-11-05T07:38:46.803Z,10.24
2022-11-05T07:41:48.441Z,10.13
2022-11-05T07:44:49.969Z,10.21
2022-11-05T07:47:57.321Z,10.21
2022-11-05T07:50:58.723Z,10.21
2022-11-05T07:54:00.258Z,10.12
2022-11-05T07:57:01.622Z,10.13
2022-11-05T08:00:03.284Z,10.16
2022-11-05T08:03:16.668Z,10.28
2022-11-05T08:06:18.495Z,10.33
2022-11-05T08:09:19.939Z,10.22
2022-11-05T08:12:21.378Z,10.16
2022-11-05T08:15:23.755Z,10.13
2022-11-05T08:18:31.273Z,9.71
2022-11-05T08:21:32.661Z,9.94
2022-11-05T08:24:34.125Z,9.89
2022-11-05T08:27:35.494Z,9.97
2022-11-05T08:30:36.904Z,10.14
2022-11-05T08:33:38.426Z,10.15
2022-11-05T08:36:43.110Z,10.05
2022-11-05T08:39:44.564Z,9.96
2022-11-05T08:42:45.995Z,9.96
2022-11-05T08:45:47.718Z,10.08
2022-11-05T08:48:49.874Z,9.81
2022-11-05T08:51:51.318Z,9.82
2022-11-05T08:54:52.724Z,9.97
2022-11-05T08:57:58.960Z,9.94
2022-11-05T09:01:04.806Z,10.19
2022-11-05T09:04:06.841Z,10.11
2022-11-05T09:07:08.262Z,9.93
2022-11-05T09:10:10.037Z,9.83
2022-11-05T09:13:18.248Z,9.48
2022-11-05T09:16:23.375Z,9.75
2022-11-05T09:19:24.861Z,9.83
2022-11-05T09:22:26.339Z,10.06
2022-11-05T09:25:27.997Z,10.00
2022-11-05T09:28:31.495Z,10.28
2022-11-05T09:31:32.879Z,10.04
2022-11-05T09:34:34.672Z,10.14
2022-11-05T09:37:36.938Z,9.86
2022-11-05T09:40:47.385Z,9.88
2022-11-05T09:43:57.147Z,10.01
2022-11-05T09:47:05.053Z,9.92
2022-11-05T09:50:12.888Z,9.67
2022-11-05T09:53:17.417Z,9.95
2022-11-05T09:56:23.096Z,9.89
2022-11-05T09:59:29.844Z,9.97
2022-11-05T10:02:35.250Z,10.24
2022-11-05T10:05:37.317Z,9.96
2022-11-05T10:08:43.261Z,10.39
2022-11-05T10:11:49.940Z,10.75
2022-11-05T10:15:16.350Z,10.93
2022-11-05T10:18:49.228Z,10.96
2022-11-05T10:22:09.914Z,10.71
2022-11-05T10:25:19.586Z,10.72
2022-11-05T10:28:24.816Z,10.99
2022-11-05T10:31:35.158Z,10.91
2022-11-05T10:34:39.101Z,10.96
2022-11-05T10:37:41.345Z,11.02
2022-11-05T10:40:53.613Z,11.12
2022-11-05T10:44:22.102Z,11.22
2022-11-05T10:47:29.387Z,11.23
2022-11-05T10:50:31.402Z,11.40
2022-11-05T10:53:36.260Z,11.34
2022-11-05T10:56:40.115Z,11.30
2022-11-05T10:59:41.517Z,11.22
2022-11-05T11:02:49.321Z,11.10
2022-11-05T11:05:59.799Z,11.09
2022-11-05T11:09:03.623Z,11.02
2022-11-05T11:12:16.905Z,11.35
2022-11-05T11:15:25.993Z,11.09
2022-11-05T11:18:40.200Z,10.82
2022-11-05T11:21:41.891Z,10.92
2022-11-05T11:24:54.105Z,11.09
2022-11-05T11:27:55.969Z,10.78
2022-11-05T11:31:06.449Z,10.95
2022-11-05T11:34:26.903Z,11.13
2022-11-05T11:37:33.703Z,11.02
2022-11-05T11:40:37.858Z,11.58
2022-11-05T11:43:42.160Z,11.75
2022-11-05T11:46:48.673Z,11.75
2022-11-05T11:49:58.072Z,11.73
2022-11-05T11:53:21.218Z,11.74
2022-11-05T11:56:24.229Z,11.83
2022-11-05T12:00:01.927Z,11.78
2022-11-05T12:03:01.841Z,11.48
2022-11-05T12:06:35.881Z,11.49
2022-11-05T12:10:02.201Z,11.57
2022-11-05T12:13:18.888Z,11.68
2022-11-05T12:16:33.351Z,11.58
2022-11-05T12:19:46.947Z,11.82
2022-11-05T12:23:13.543Z,11.61
2022-11-05T12:26:28.943Z,11.91
2022-11-05T12:29:37.483Z,11.87
2022-11-05T12:33:05.548Z,11.83
2022-11-05T12:36:50.190Z,11.90
2022-11-05T12:40:23.855Z,11.68
2022-11-05T12:43:53.295Z,11.39
2022-11-05T12:47:32.949Z,11.54
2022-11-05T12:50:45.605Z,11.27
2022-11-05T12:54:16.648Z,11.47
2022-11-05T12:57:19.853Z,11.33
2022-11-05T13:00:24.417Z,11.44
2022-11-05T13:03:40.922Z,11.50
2022-11-05T13:06:47.140Z,11.48
2022-11-05T13:09:55.300Z,11.39
2022-11-05T13:13:12.149Z,11.57
2022-11-05T13:16:26.884Z,11.57
2022-11-05T13:19:41.094Z,11.64
2022-11-05T13:22:49.826Z,11.68
2022-11-05T13:25:57.739Z,11.42
2022-11-05T13:29:07.833Z,11.36
2022-11-05T13:32:24.474Z,11.41
2022-11-05T13:35:46.888Z,11.57
2022-11-05T13:39:00.194Z,11.75
2022-11-05T13:42:26.382Z,11.73
2022-11-05T13:46:07.918Z,11.53
2022-11-05T13:49:31.031Z,11.74
2022-11-05T13:52:55.188Z,11.83
2022-11-05T13:56:23.172Z,11.91
2022-11-05T13:59:51.034Z,11.74
2022-11-05T14:03:02.231Z,11.83
2022-11-05T14:06:06.603Z,11.88
2022-11-05T14:09:11.842Z,11.68
2022-11-05T14:12:35.920Z,11.69
2022-11-05T14:15:37.358Z,11.08
2022-11-05T14:18:40.911Z,11.10
2022-11-05T14:21:53.626Z,11.55
2022-11-05T14:24:55.130Z,11.70
2022-11-05T14:27:58.391Z,11.78
2022-11-05T14:31:00.577Z,11.72
2022-11-05T14:34:10.876Z,10.66
2022-11-05T14:37:12.496Z,11.26
2022-11-05T14:40:20.048Z,11.36
2022-11-05T14:43:24.467Z,11.26
2022-11-05T14:46:41.096Z,11.33
2022-11-05T14:49:54.925Z,11.34
2022-11-05T14:52:59.707Z,11.60
2022-11-05T14:56:06.841Z,11.78
2022-11-05T14:59:28.336Z,11.88
2022-11-05T15:02:36.552Z,11.86
2022-11-05T15:05:47.994Z,11.90
2022-11-05T15:08:49.651Z,11.68
2022-11-05T15:12:02.330Z,11.79
2022-11-05T15:15:21.308Z,11.54
2022-11-05T15:18:43.252Z,11.23
2022-11-05T15:21:45.470Z,10.98
2022-11-05T15:24:47.427Z,11.05
2022-11-05T15:28:02.569Z,11.21
2022-11-05T15:31:13.313Z,11.29
2022-11-05T15:34:30.972Z,11.35
2022-11-05T15:37:32.343Z,11.42
2022-11-05T15:40:33.876Z,11.35
2022-11-05T15:43:35.410Z,11.31
2022-11-05T15:46:36.813Z,11.23
2022-11-05T15:49:38.690Z,11.21
2022-11-05T15:52:48.704Z,11.13
2022-11-05T15:55:55.780Z,11.12
2022-11-05T15:59:03.563Z,10.95
2022-11-05T16:02:26.919Z,10.92
2022-11-05T16:05:33.518Z,10.81
2022-11-05T16:08:35.889Z,10.45
2022-11-05T16:11:37.309Z,10.15
2022-11-05T16:14:39.262Z,9.96
2022-11-05T16:17:58.757Z,10.06
2022-11-05T16:21:11.941Z,9.78
2022-11-05T16:24:29.096Z,9.44
2022-11-05T16:27:30.810Z,9.52
2022-11-05T16:30:32.465Z,9.63
2022-11-05T16:33:45.733Z,9.22
2022-11-05T16:36:47.156Z,9.39
2022-11-05T16:39:48.569Z,9.35
2022-11-05T16:42:52.201Z,9.43
2022-11-05T16:45:57.029Z,9.69
2022-11-05T16:48:58.407Z,9.60
2022-11-05T16:52:00.168Z,9.44
2022-11-05T16:55:01.690Z,9.26
2022-11-05T16:58:03.140Z,9.20
2022-11-05T17:01:10.185Z,9.12
2022-11-05T17:04:13.041Z,9.23
2022-11-05T17:07:14.466Z,9.48
2022-11-05T17:10:16.480Z,9.68
2022-11-05T17:13:19.551Z,9.55
2022-11-05T17:16:20.946Z,9.50
2022-11-05T17:19:22.327Z,9.16
2022-11-05T17:22:23.706Z,9.07
2022-11-05T17:25:25.638Z,8.91
2022-11-05T17:28:28.940Z,8.87
2022-11-05T17:31:30.398Z,8.29
2022-11-05T17:34:31.888Z,8.72
2022-11-05T17:37:36.360Z,8.80
2022-11-05T17:40:38.328Z,8.75
2022-11-05T17:43:39.942Z,9.12
2022-11-05T17:46:41.374Z,9.06
2022-11-05T17:49:42.770Z,8.66
2022-11-05T17:52:44.604Z,8.43
2022-11-05T17:55:46.897Z,8.47
2022-11-05T17:58:48.254Z,8.89
2022-11-05T18:01:49.941Z,8.88
2022-11-05T18:04:51.550Z,8.67
2022-11-05T18:07:53.034Z,8.53
2022-11-05T18:10:54.515Z,8.43
2022-11-05T18:13:55.909Z,8.61
2022-11-05T18:17:00.001Z,8.68
2022-11-05T18:20:01.866Z,8.95
2022-11-05T18:23:03.396Z,9.12
2022-11-05T18:26:13.032Z,8.99
2022-11-05T18:29:14.454Z,8.43
2022-11-05T18:32:15.831Z,8.61
2022-11-05T18:35:17.293Z,8.72
2022-11-05T18:38:18.817Z,8.69
2022-11-05T18:41:21.557Z,8.89
2022-11-05T18:44:24.694Z,8.95
2022-11-05T18:47:26.101Z,9.01
2022-11-05T18:50:28.565Z,8.63
2022-11-05T18:53:30.023Z,8.89
2022-11-05T18:56:31.457Z,8.76
2022-11-05T18:59:38.600Z,8.89
2022-11-05T19:02:41.171Z,8.91
2022-11-05T19:05:42.835Z,8.90
2022-11-05T19:08:44.584Z,8.71
2022-11-05T19:11:46.202Z,9.00
2022-11-05T19:14:47.639Z,8.92
2022-11-05T19:17:49.018Z,8.99
2022-11-05T19:20:50.451Z,8.71
2022-11-05T19:23:53.027Z,9.08
2022-11-05T19:26:54.427Z,9.07
2022-11-05T19:29:55.830Z,9.09
2022-11-05T19:32:57.279Z,8.85
2022-11-05T19:35:58.916Z,8.90
2022-11-05T19:39:04.333Z,8.75
2022-11-05T19:42:06.647Z,8.89
2022-11-05T19:45:30.172Z,8.95
2022-11-05T19:48:31.394Z,8.87
2022-11-05T19:51:32.948Z,8.67
2022-11-05T19:54:35.862Z,8.44
2022-11-05T19:57:37.424Z,8.44
2022-11-05T20:00:39.177Z,8.62
2022-11-05T20:03:41.207Z,8.42
2022-11-05T20:06:42.660Z,8.45
2022-11-05T20:09:44.047Z,8.42
2022-11-05T20:12:45.432Z,8.35
2022-11-05T20:15:47.066Z,8.37
2022-11-05T20:18:48.883Z,8.43
2022-11-05T20:21:50.366Z,8.43
2022-11-05T20:24:51.917Z,8.29
2022-11-05T20:27:53.415Z,8.10
2022-11-05T20:30:57.456Z,8.27
2022-11-05T20:33:58.876Z,8.30
2022-11-05T20:37:00.770Z,8.38
2022-11-05T20:40:02.163Z,8.29
2022-11-05T20:43:03.554Z,8.31
2022-11-05T20:46:04.978Z,8.01
2022-11-05T20:49:06.794Z,8.04
2022-11-05T20:52:08.186Z,8.19
2022-11-05T20:55:09.894Z,8.12
2022-11-05T20:58:12.661Z,8.05
2022-11-05T21:01:16.441Z,8.26
2022-11-05T21:04:17.947Z,8.41
2022-11-05T21:07:19.360Z,8.44
2022-11-05T21:10:20.932Z,8.34
2022-11-05T21:13:23.378Z,8.44
2022-11-05T21:16:24.753Z,8.44
2022-11-05T21:19:26.125Z,8.17
2022-11-05T21:22:27.501Z,8.23
2022-11-05T21:25:28.991Z,7.95
2022-11-05T21:28:30.408Z,8.07
2022-11-05T21:31:31.808Z,8.08
2022-11-05T21:34:33.327Z,7.98
2022-11-05T21:37:34.745Z,7.89
2022-11-05T21:40:36.666Z,7.96
2022-11-05T21:43:38.714Z,7.83
2022-11-05T21:46:40.275Z,7.94
2022-11-05T21:49:41.698Z,7.91
2022-11-05T21:53:01.716Z,7.77
2022-11-05T21:56:39.291Z,7.80
2022-11-05T21:59:51.570Z,7.71
2022-11-05T22:02:53.147Z,7.50
2022-11-05T22:05:56.357Z,7.59
2022-11-05T22:08:57.771Z,7.87
2022-11-05T22:12:00.133Z,7.81
2022-11-05T22:15:01.649Z,7.93
2022-11-05T22:18:03.371Z,7.66
2022-11-05T22:21:05.152Z,7.77
2022-11-05T22:24:07.322Z,7.69
2022-11-05T22:27:13.525Z,7.85
2022-11-05T22:30:15.029Z,7.99
2022-11-05T22:33:17.185Z,7.83
2022-11-05T22:36:18.634Z,7.52
2022-11-05T22:39:20.571Z,7.90
2022-11-05T22:42:22.920Z,7.82
2022-11-05T22:45:24.396Z,7.77
2022-11-05T22:48:25.837Z,7.83
2022-11-05T22:51:30.538Z,7.87
2022-11-05T22:54:37.879Z,7.90
2022-11-05T22:57:40.400Z,7.71
2022-11-05T23:00:41.780Z,7.87
2022-11-05T23:03:45.552Z,7.83
2022-11-05T23:07:05.613Z,7.50
2022-11-05T23:10:27.550Z,7.55
2022-11-05T23:13:28.974Z,7.63
2022-11-05T23:17:03.386Z,7.64
2022-11-05T23:20:29.757Z,6.78
2022-11-05T23:23:49.613Z,7.49
2022-11-05T23:26:51.037Z,7.55
2022-11-05T23:29:52.575Z,7.52
2022-11-05T23:32:55.478Z,7.64
2022-11-05T23:36:15.341Z,7.64
2022-11-05T23:39:16.861Z,7.70
2022-11-05T23:42:37.466Z,7.69
2022-11-05T23:45:49.560Z,7.67
2022-11-05T23:48:52.614Z,7.48
2022-11-05T23:51:53.988Z,7.58
2022-11-05T23:55:02.108Z,7.45
2022-11-05T23:58:03.823Z,7.35
